No particular awareness of the weather is required.    There are no Weather-warnings


Meteo18 Weather Cam more information Meteo18 Weather Cam


Thunder radar more information blitzortung!


Rain radar more information rain snow radar


Visit our other weather sites:

Template documentation
and downloads

And another site



Weather Underground History page Text

Daily Summary for November 16, 2017 Units:  Both    English   Metric
« Previous Day
Next Day »
Daily Weekly Monthly Yearly Custom
  High: Low: Average:
Temperature: TemperatureC °F /  -17.8 °C 1.2 °F /  -17.1 °C 2.7 °F /  -16.3 °C
Dew Point: DewpointC °F /  -17.8 °C 0.8 °F /  -17.3 °C 2.3 °F /  -16.5 °C
Humidity: Humidity % 95 % 96 %
Wind Speed: WindSpeedKMH mph /  0 km/h - 0.9 mph /  1.4 km/h
Wind Gust: WindSpeedGustKMH mph /  0 km/h - -
Wind:- - South
Pressure: PressurehPa in /  0 hPa 1023.6 in /  34659.1 hPa -
Precipitation: 0.0 in /  0 mm    
Historical Graphs
 
 
Tabular Data for November 16, 2017
Time Temperature Dew Point Pressure Wind Wind Speed Wind Gust Humidity Rainfall Rate (Hourly)
TemperatureC °F /  -17.8 °C DewpointC °F /  -17.8 °C PressurehPa in /  0 hPa Calm     Humidity % HourlyPrecipMM in /  0 mm
00:02 3.9 °F /  -15.6 °C 3.3 °F /  -15.9 °C 1024.6 in /  34693 hPa North 1.6 mph /  2.6 km/h 8.0 mph /  12.9 km/h 96 % 0.0 in /  0 mm
00:07 4.0 °F /  -15.6 °C 3.4 °F /  -15.9 °C 1024.6 in /  34693 hPa Calm   8.0 mph /  12.9 km/h 96 % 0.0 in /  0 mm
00:12 4.1 °F /  -15.5 °C 3.5 °F /  -15.8 °C 1024.6 in /  34693 hPa NNW 3.2 mph /  5.1 km/h 8.0 mph /  12.9 km/h 96 % 0.0 in /  0 mm
00:17 4.2 °F /  -15.4 °C 3.6 °F /  -15.8 °C 1024.6 in /  34693 hPa Calm   8.0 mph /  12.9 km/h 96 % 0.0 in /  0 mm
00:22 4.2 °F /  -15.4 °C 3.5 °F /  -15.8 °C 1024.6 in /  34693 hPa NNW 3.2 mph /  5.1 km/h 8.0 mph /  12.9 km/h 95 % 0.0 in /  0 mm
00:27 4.2 °F /  -15.4 °C 3.5 °F /  -15.8 °C 1024.6 in /  34693 hPa NE 1.6 mph /  2.6 km/h 11.3 mph /  18.2 km/h 95 % 0.0 in /  0 mm
00:32 4.1 °F /  -15.5 °C 3.4 °F /  -15.9 °C 1024.3 in /  34682.8 hPa North 1.6 mph /  2.6 km/h 11.3 mph /  18.2 km/h 95 % 0.0 in /  0 mm
00:37 4.1 °F /  -15.5 °C 3.4 °F /  -15.9 °C 1024.6 in /  34693 hPa North 1.6 mph /  2.6 km/h 6.4 mph /  10.3 km/h 95 % 0.0 in /  0 mm
00:42 4.0 °F /  -15.6 °C 3.3 °F /  -15.9 °C 1024.6 in /  34693 hPa North 3.2 mph /  5.1 km/h 6.4 mph /  10.3 km/h 95 % 0.0 in /  0 mm
00:47 4.0 °F /  -15.6 °C 3.3 °F /  -15.9 °C 1024.6 in /  34693 hPa ENE 3.2 mph /  5.1 km/h 6.4 mph /  10.3 km/h 95 % 0.0 in /  0 mm
00:52 4.0 °F /  -15.6 °C 3.3 °F /  -15.9 °C 1024.3 in /  34682.8 hPa NNE 6.4 mph /  10.3 km/h 9.7 mph /  15.6 km/h 95 % 0.0 in /  0 mm
00:57 3.9 °F /  -15.6 °C 3.2 °F /  -16 °C 1024.3 in /  34682.8 hPa NNW 3.2 mph /  5.1 km/h 9.7 mph /  15.6 km/h 95 % 0.0 in /  0 mm
01:02 3.9 °F /  -15.6 °C 3.2 °F /  -16 °C 1024.3 in /  34682.8 hPa Calm   9.7 mph /  15.6 km/h 95 % 0.0 in /  0 mm
01:07 3.8 °F /  -15.7 °C 3.1 °F /  -16.1 °C 1024.3 in /  34682.8 hPa NNE 4.8 mph /  7.7 km/h 8.0 mph /  12.9 km/h 95 % 0.0 in /  0 mm
01:12 3.7 °F /  -15.7 °C 3.0 °F /  -16.1 °C 1024.3 in /  34682.8 hPa North 3.2 mph /  5.1 km/h 8.0 mph /  12.9 km/h 95 % 0.0 in /  0 mm
01:17 3.7 °F /  -15.7 °C 3.0 °F /  -16.1 °C 1024.3 in /  34682.8 hPa North 3.2 mph /  5.1 km/h 8.0 mph /  12.9 km/h 95 % 0.0 in /  0 mm
01:22 3.7 °F /  -15.7 °C 3.0 °F /  -16.1 °C 1024.3 in /  34682.8 hPa Calm   6.4 mph /  10.3 km/h 95 % 0.0 in /  0 mm
01:32 3.6 °F /  -15.8 °C 2.9 °F /  -16.2 °C 1024.3 in /  34682.8 hPa North 1.6 mph /  2.6 km/h 4.8 mph /  7.7 km/h 95 % 0.0 in /  0 mm
01:37 3.6 °F /  -15.8 °C 2.9 °F /  -16.2 °C 1024.3 in /  34682.8 hPa NNW 1.6 mph /  2.6 km/h 4.8 mph /  7.7 km/h 95 % 0.0 in /  0 mm
01:42 3.6 °F /  -15.8 °C 2.9 °F /  -16.2 °C 1024.3 in /  34682.8 hPa NNW 4.8 mph /  7.7 km/h 4.8 mph /  7.7 km/h 95 % 0.0 in /  0 mm
01:47 3.6 °F /  -15.8 °C 2.9 °F /  -16.2 °C 1024.3 in /  34682.8 hPa North 6.4 mph /  10.3 km/h 9.7 mph /  15.6 km/h 95 % 0.0 in /  0 mm
01:52 3.6 °F /  -15.8 °C 3.0 °F /  -16.1 °C 1024.3 in /  34682.8 hPa NNE 6.4 mph /  10.3 km/h 11.3 mph /  18.2 km/h 96 % 0.0 in /  0 mm
01:57 3.6 °F /  -15.8 °C 3.0 °F /  -16.1 °C 1024.3 in /  34682.8 hPa North 6.4 mph /  10.3 km/h 11.3 mph /  18.2 km/h 96 % 0.0 in /  0 mm
02:02 3.7 °F /  -15.7 °C 3.1 °F /  -16.1 °C 1024.3 in /  34682.8 hPa North 1.6 mph /  2.6 km/h 11.3 mph /  18.2 km/h 96 % 0.0 in /  0 mm
02:07 3.7 °F /  -15.7 °C 3.1 °F /  -16.1 °C 1023.9 in /  34669.3 hPa NNE 4.8 mph /  7.7 km/h 11.3 mph /  18.2 km/h 96 % 0.0 in /  0 mm
02:12 3.7 °F /  -15.7 °C 3.1 °F /  -16.1 °C 1023.9 in /  34669.3 hPa NNW 1.6 mph /  2.6 km/h 11.3 mph /  18.2 km/h 96 % 0.0 in /  0 mm
02:17 3.7 °F /  -15.7 °C 3.1 °F /  -16.1 °C 1023.9 in /  34669.3 hPa NW 1.6 mph /  2.6 km/h 11.3 mph /  18.2 km/h 96 % 0.0 in /  0 mm
02:22 3.7 °F /  -15.7 °C 3.1 °F /  -16.1 °C 1023.9 in /  34669.3 hPa North 4.8 mph /  7.7 km/h 11.3 mph /  18.2 km/h 96 % 0.0 in /  0 mm
02:32 3.6 °F /  -15.8 °C 3.0 °F /  -16.1 °C 1023.9 in /  34669.3 hPa NNW 1.6 mph /  2.6 km/h 9.7 mph /  15.6 km/h 96 % 0.0 in /  0 mm
02:37 3.6 °F /  -15.8 °C 3.0 °F /  -16.1 °C 1023.9 in /  34669.3 hPa Calm   9.7 mph /  15.6 km/h 96 % 0.0 in /  0 mm
02:42 3.6 °F /  -15.8 °C 3.0 °F /  -16.1 °C 1023.9 in /  34669.3 hPa North 4.8 mph /  7.7 km/h 9.7 mph /  15.6 km/h 96 % 0.0 in /  0 mm
02:52 3.5 °F /  -15.8 °C 2.9 °F /  -16.2 °C 1023.9 in /  34669.3 hPa NNW 1.6 mph /  2.6 km/h 6.4 mph /  10.3 km/h 96 % 0.0 in /  0 mm
02:57 3.5 °F /  -15.8 °C 2.9 °F /  -16.2 °C 1023.9 in /  34669.3 hPa Calm   6.4 mph /  10.3 km/h 96 % 0.0 in /  0 mm
03:02 3.5 °F /  -15.8 °C 2.9 °F /  -16.2 °C 1023.9 in /  34669.3 hPa Calm   6.4 mph /  10.3 km/h 96 % 0.0 in /  0 mm
03:12 3.5 °F /  -15.8 °C 2.9 °F /  -16.2 °C 1024.3 in /  34682.8 hPa Calm   4.8 mph /  7.7 km/h 96 % 0.0 in /  0 mm
03:22 3.5 °F /  -15.8 °C 2.9 °F /  -16.2 °C 1023.9 in /  34669.3 hPa NE 1.6 mph /  2.6 km/h 6.4 mph /  10.3 km/h 96 % 0.0 in /  0 mm
03:32 3.4 °F /  -15.9 °C 2.8 °F /  -16.2 °C 1023.9 in /  34669.3 hPa NNE 1.6 mph /  2.6 km/h 6.4 mph /  10.3 km/h 96 % 0.0 in /  0 mm
03:37 3.4 °F /  -15.9 °C 2.8 °F /  -16.2 °C 1023.6 in /  34659.1 hPa Calm   6.4 mph /  10.3 km/h 96 % 0.0 in /  0 mm
03:42 3.3 °F /  -15.9 °C 2.7 °F /  -16.3 °C 1023.9 in /  34669.3 hPa East 1.6 mph /  2.6 km/h 6.4 mph /  10.3 km/h 96 % 0.0 in /  0 mm
03:52 2.9 °F /  -16.2 °C 2.9 °F /  -16.2 °C 1023.6 in /  34659.1 hPa Calm   6.4 mph /  10.3 km/h 100 % 0.0 in /  0 mm
03:57 2.9 °F /  -16.2 °C 2.9 °F /  -16.2 °C 1023.6 in /  34659.1 hPa Calm   3.2 mph /  5.1 km/h 100 % 0.0 in /  0 mm
08:52 1.2 °F /  -17.1 °C 0.8 °F /  -17.3 °C 1024.9 in /  34703.1 hPa Calm   -1607.4 mph /  -2586.8 km/h 97 % 0.0 in /  0 mm
08:57 1.2 °F /  -17.1 °C 0.8 °F /  -17.3 °C 1024.9 in /  34703.1 hPa Calm   4.8 mph /  7.7 km/h 97 % 0.0 in /  0 mm
09:02 1.3 °F /  -17.1 °C 0.9 °F /  -17.3 °C 1024.9 in /  34703.1 hPa NNE 1.6 mph /  2.6 km/h 4.8 mph /  7.7 km/h 97 % 0.0 in /  0 mm
09:07 1.3 °F /  -17.1 °C 0.9 °F /  -17.3 °C 1024.9 in /  34703.1 hPa Calm   4.8 mph /  7.7 km/h 97 % 0.0 in /  0 mm
09:12 1.4 °F /  -17 °C 1.0 °F /  -17.2 °C 1024.9 in /  34703.1 hPa Calm   4.8 mph /  7.7 km/h 97 % 0.0 in /  0 mm
09:17 1.4 °F /  -17 °C 1.0 °F /  -17.2 °C 1024.9 in /  34703.1 hPa Calm   1.6 mph /  2.6 km/h 97 % 0.0 in /  0 mm
09:22 1.5 °F /  -16.9 °C 1.1 °F /  -17.2 °C 1024.9 in /  34703.1 hPa Calm   1.6 mph /  2.6 km/h 97 % 0.0 in /  0 mm
09:27 1.5 °F /  -16.9 °C 1.1 °F /  -17.2 °C 1024.9 in /  34703.1 hPa Calm   4.8 mph /  7.7 km/h 97 % 0.0 in /  0 mm
09:47 1.7 °F /  -16.8 °C 1.3 °F /  -17.1 °C 1024.9 in /  34703.1 hPa East 1.6 mph /  2.6 km/h   97 % 0.0 in /  0 mm
09:57 1.8 °F /  -16.8 °C 1.4 °F /  -17 °C 1024.9 in /  34703.1 hPa Calm   3.2 mph /  5.1 km/h 97 % 0.0 in /  0 mm
10:02 1.8 °F /  -16.8 °C 1.4 °F /  -17 °C 1024.9 in /  34703.1 hPa NNE 1.6 mph /  2.6 km/h 3.2 mph /  5.1 km/h 97 % 0.0 in /  0 mm
10:07 1.8 °F /  -16.8 °C 1.4 °F /  -17 °C 1024.9 in /  34703.1 hPa NNE 1.6 mph /  2.6 km/h 3.2 mph /  5.1 km/h 97 % 0.0 in /  0 mm
10:12 1.7 °F /  -16.8 °C 1.3 °F /  -17.1 °C 1025.3 in /  34716.7 hPa NE 1.6 mph /  2.6 km/h 3.2 mph /  5.1 km/h 97 % 0.0 in /  0 mm
10:17 1.8 °F /  -16.8 °C 1.4 °F /  -17 °C 1025.3 in /  34716.7 hPa NNE 1.6 mph /  2.6 km/h 3.2 mph /  5.1 km/h 97 % 0.0 in /  0 mm
10:22 1.7 °F /  -16.8 °C 1.3 °F /  -17.1 °C 1025.3 in /  34716.7 hPa Calm   3.2 mph /  5.1 km/h 97 % 0.0 in /  0 mm
10:32 1.8 °F /  -16.8 °C 1.4 °F /  -17 °C 1025.3 in /  34716.7 hPa Calm   3.2 mph /  5.1 km/h 97 % 0.0 in /  0 mm
10:37 1.9 °F /  -16.7 °C 1.5 °F /  -16.9 °C 1025.3 in /  34716.7 hPa Calm   3.2 mph /  5.1 km/h 97 % 0.0 in /  0 mm
10:42 1.9 °F /  -16.7 °C 1.5 °F /  -16.9 °C 1025.3 in /  34716.7 hPa Calm   3.2 mph /  5.1 km/h 97 % 0.0 in /  0 mm
10:47 1.9 °F /  -16.7 °C 1.5 °F /  -16.9 °C 1024.9 in /  34703.1 hPa South 1.6 mph /  2.6 km/h 3.2 mph /  5.1 km/h 97 % 0.0 in /  0 mm
10:57 1.9 °F /  -16.7 °C 1.5 °F /  -16.9 °C 1024.9 in /  34703.1 hPa SE 1.6 mph /  2.6 km/h 8.0 mph /  12.9 km/h 97 % 0.0 in /  0 mm
11:02 2.0 °F /  -16.7 °C 1.6 °F /  -16.9 °C 1025.3 in /  34716.7 hPa SSE 3.2 mph /  5.1 km/h 8.0 mph /  12.9 km/h 97 % 0.0 in /  0 mm
11:07 1.9 °F /  -16.7 °C 1.5 °F /  -16.9 °C 1025.3 in /  34716.7 hPa Calm   8.0 mph /  12.9 km/h 97 % 0.0 in /  0 mm
11:17 1.8 °F /  -16.8 °C 1.4 °F /  -17 °C 1025.3 in /  34716.7 hPa SSE 1.6 mph /  2.6 km/h 6.4 mph /  10.3 km/h 97 % 0.0 in /  0 mm
11:22 1.8 °F /  -16.8 °C 1.4 °F /  -17 °C 1025.3 in /  34716.7 hPa Calm   6.4 mph /  10.3 km/h 97 % 0.0 in /  0 mm
11:32 1.8 °F /  -16.8 °C 1.4 °F /  -17 °C 1025.3 in /  34716.7 hPa Calm   4.8 mph /  7.7 km/h 97 % 0.0 in /  0 mm
11:37 1.9 °F /  -16.7 °C 1.5 °F /  -16.9 °C 1025.3 in /  34716.7 hPa SSW 3.2 mph /  5.1 km/h 4.8 mph /  7.7 km/h 97 % 0.0 in /  0 mm
11:42 1.8 °F /  -16.8 °C 1.4 °F /  -17 °C 1025.3 in /  34716.7 hPa Calm   4.8 mph /  7.7 km/h 97 % 0.0 in /  0 mm
11:47 1.8 °F /  -16.8 °C 1.4 °F /  -17 °C 1025.3 in /  34716.7 hPa Calm   6.4 mph /  10.3 km/h 97 % 0.0 in /  0 mm
11:52 1.8 °F /  -16.8 °C 1.4 °F /  -17 °C 1024.9 in /  34703.1 hPa SW 1.6 mph /  2.6 km/h 6.4 mph /  10.3 km/h 97 % 0.0 in /  0 mm
12:02 1.8 °F /  -16.8 °C 1.4 °F /  -17 °C 1024.9 in /  34703.1 hPa SSE 1.6 mph /  2.6 km/h 4.8 mph /  7.7 km/h 97 % 0.0 in /  0 mm
12:07 1.8 °F /  -16.8 °C 1.4 °F /  -17 °C 1024.9 in /  34703.1 hPa SSE 1.6 mph /  2.6 km/h 4.8 mph /  7.7 km/h 97 % 0.0 in /  0 mm
12:17 1.8 °F /  -16.8 °C 1.4 °F /  -17 °C 1024.9 in /  34703.1 hPa SW 1.6 mph /  2.6 km/h 4.8 mph /  7.7 km/h 97 % 0.0 in /  0 mm
12:22 1.8 °F /  -16.8 °C 1.4 °F /  -17 °C 1024.9 in /  34703.1 hPa SW 1.6 mph /  2.6 km/h 4.8 mph /  7.7 km/h 97 % 0.0 in /  0 mm
12:32 2.0 °F /  -16.7 °C 1.6 °F /  -16.9 °C 1024.9 in /  34703.1 hPa SW 3.2 mph /  5.1 km/h 3.2 mph /  5.1 km/h 97 % 0.0 in /  0 mm
12:42 2.0 °F /  -16.7 °C 1.6 °F /  -16.9 °C 1024.9 in /  34703.1 hPa South 1.6 mph /  2.6 km/h 6.4 mph /  10.3 km/h 97 % 0.0 in /  0 mm
12:52 1.9 °F /  -16.7 °C 1.5 °F /  -16.9 °C 1024.9 in /  34703.1 hPa SSW 3.2 mph /  5.1 km/h 6.4 mph /  10.3 km/h 97 % 0.0 in /  0 mm
13:02 1.9 °F /  -16.7 °C 1.5 °F /  -16.9 °C 1024.9 in /  34703.1 hPa Calm   6.4 mph /  10.3 km/h 97 % 0.0 in /  0 mm
13:12 2.1 °F /  -16.6 °C 1.7 °F /  -16.8 °C 1024.9 in /  34703.1 hPa SW 1.6 mph /  2.6 km/h 4.8 mph /  7.7 km/h 97 % 0.0 in /  0 mm
13:17 2.0 °F /  -16.7 °C 1.6 °F /  -16.9 °C 1024.9 in /  34703.1 hPa Calm   4.8 mph /  7.7 km/h 97 % 0.0 in /  0 mm
13:22 2.1 °F /  -16.6 °C 1.7 °F /  -16.8 °C 1025.3 in /  34716.7 hPa SSW 1.6 mph /  2.6 km/h 3.2 mph /  5.1 km/h 97 % 0.0 in /  0 mm
13:27 2.2 °F /  -16.6 °C 1.8 °F /  -16.8 °C 1025.3 in /  34716.7 hPa SSW 3.2 mph /  5.1 km/h 4.8 mph /  7.7 km/h 97 % 0.0 in /  0 mm
13:32 2.3 °F /  -16.5 °C 1.9 °F /  -16.7 °C 1025.3 in /  34716.7 hPa Calm   4.8 mph /  7.7 km/h 97 % 0.0 in /  0 mm
13:37 2.3 °F /  -16.5 °C 1.9 °F /  -16.7 °C 1025.3 in /  34716.7 hPa Calm   4.8 mph /  7.7 km/h 97 % 0.0 in /  0 mm
13:42 2.4 °F /  -16.4 °C 2.0 °F /  -16.7 °C 1024.9 in /  34703.1 hPa Calm   4.8 mph /  7.7 km/h 97 % 0.0 in /  0 mm
13:47 2.4 °F /  -16.4 °C 2.0 °F /  -16.7 °C 1024.9 in /  34703.1 hPa Calm   3.2 mph /  5.1 km/h 97 % 0.0 in /  0 mm
13:52 2.7 °F /  -16.3 °C 2.3 °F /  -16.5 °C 1024.9 in /  34703.1 hPa Calm   3.2 mph /  5.1 km/h 97 % 0.0 in /  0 mm
13:57 2.8 °F /  -16.2 °C 2.4 °F /  -16.4 °C 1024.9 in /  34703.1 hPa SSE 3.2 mph /  5.1 km/h 3.2 mph /  5.1 km/h 97 % 0.0 in /  0 mm
14:02 2.8 °F /  -16.2 °C 2.4 °F /  -16.4 °C 1024.9 in /  34703.1 hPa SE 1.6 mph /  2.6 km/h 3.2 mph /  5.1 km/h 97 % 0.0 in /  0 mm
14:07 2.9 °F /  -16.2 °C 2.5 °F /  -16.4 °C 1024.9 in /  34703.1 hPa Calm   3.2 mph /  5.1 km/h 97 % 0.0 in /  0 mm
14:12 2.9 °F /  -16.2 °C 2.5 °F /  -16.4 °C 1024.9 in /  34703.1 hPa Calm   3.2 mph /  5.1 km/h 97 % 0.0 in /  0 mm
14:17 2.9 °F /  -16.2 °C 2.5 °F /  -16.4 °C 1024.9 in /  34703.1 hPa South 3.2 mph /  5.1 km/h 3.2 mph /  5.1 km/h 97 % 0.0 in /  0 mm
14:22 2.9 °F /  -16.2 °C 2.5 °F /  -16.4 °C 1024.9 in /  34703.1 hPa SE 1.6 mph /  2.6 km/h 4.8 mph /  7.7 km/h 97 % 0.0 in /  0 mm
14:27 2.9 °F /  -16.2 °C 2.5 °F /  -16.4 °C 1024.9 in /  34703.1 hPa Calm   4.8 mph /  7.7 km/h 97 % 0.0 in /  0 mm
14:32 2.9 °F /  -16.2 °C 2.5 °F /  -16.4 °C 1024.9 in /  34703.1 hPa Calm   4.8 mph /  7.7 km/h 97 % 0.0 in /  0 mm
14:42 3.0 °F /  -16.1 °C 2.6 °F /  -16.3 °C 1024.9 in /  34703.1 hPa ENE 1.6 mph /  2.6 km/h 4.8 mph /  7.7 km/h 97 % 0.0 in /  0 mm
14:47 3.1 °F /  -16.1 °C 2.7 °F /  -16.3 °C 1024.9 in /  34703.1 hPa SSE 3.2 mph /  5.1 km/h 4.8 mph /  7.7 km/h 97 % 0.0 in /  0 mm
14:52 3.1 °F /  -16.1 °C 2.7 °F /  -16.3 °C 1024.9 in /  34703.1 hPa Calm   4.8 mph /  7.7 km/h 97 % 0.0 in /  0 mm
14:57 3.2 °F /  -16 °C 2.8 °F /  -16.2 °C 1024.9 in /  34703.1 hPa Calm   3.2 mph /  5.1 km/h 97 % 0.0 in /  0 mm
15:02 3.2 °F /  -16 °C 2.8 °F /  -16.2 °C 1024.9 in /  34703.1 hPa Calm   3.2 mph /  5.1 km/h 97 % 0.0 in /  0 mm
15:07 3.2 °F /  -16 °C 2.8 °F /  -16.2 °C 1024.9 in /  34703.1 hPa Calm   3.2 mph /  5.1 km/h 97 % 0.0 in /  0 mm
15:12 3.2 °F /  -16 °C 2.8 °F /  -16.2 °C 1024.9 in /  34703.1 hPa Calm   3.2 mph /  5.1 km/h 97 % 0.0 in /  0 mm
15:17 3.2 °F /  -16 °C 2.8 °F /  -16.2 °C 1024.9 in /  34703.1 hPa Calm   1.6 mph /  2.6 km/h 97 % 0.0 in /  0 mm
15:22 3.2 °F /  -16 °C 2.8 °F /  -16.2 °C 1024.9 in /  34703.1 hPa Calm     97 % 0.0 in /  0 mm
15:32 3.2 °F /  -16 °C 2.8 °F /  -16.2 °C 1024.9 in /  34703.1 hPa Calm     97 % 0.0 in /  0 mm
15:37 3.2 °F /  -16 °C 2.8 °F /  -16.2 °C 1024.9 in /  34703.1 hPa Calm     97 % 0.0 in /  0 mm
15:42 3.3 °F /  -15.9 °C 2.9 °F /  -16.2 °C 1024.9 in /  34703.1 hPa Calm     97 % 0.0 in /  0 mm
15:52 3.3 °F /  -15.9 °C 2.9 °F /  -16.2 °C 1024.9 in /  34703.1 hPa Calm     97 % 0.0 in /  0 mm
15:57 3.3 °F /  -15.9 °C 2.9 °F /  -16.2 °C 1024.9 in /  34703.1 hPa Calm     97 % 0.0 in /  0 mm
16:02 3.3 °F /  -15.9 °C 2.9 °F /  -16.2 °C 1024.9 in /  34703.1 hPa Calm     97 % 0.0 in /  0 mm
16:07 3.3 °F /  -15.9 °C 2.9 °F /  -16.2 °C 1025.3 in /  34716.7 hPa Calm   1.6 mph /  2.6 km/h 97 % 0.0 in /  0 mm
16:12 3.3 °F /  -15.9 °C 2.9 °F /  -16.2 °C 1024.9 in /  34703.1 hPa Calm   1.6 mph /  2.6 km/h 97 % 0.0 in /  0 mm
16:17 3.3 °F /  -15.9 °C 2.9 °F /  -16.2 °C 1024.9 in /  34703.1 hPa Calm   1.6 mph /  2.6 km/h 97 % 0.0 in /  0 mm
16:22 3.3 °F /  -15.9 °C 2.9 °F /  -16.2 °C 1025.3 in /  34716.7 hPa Calm   1.6 mph /  2.6 km/h 97 % 0.0 in /  0 mm
16:32 3.2 °F /  -16 °C 2.8 °F /  -16.2 °C 1024.9 in /  34703.1 hPa Calm   1.6 mph /  2.6 km/h 97 % 0.0 in /  0 mm
16:37 3.2 °F /  -16 °C 2.8 °F /  -16.2 °C 1024.9 in /  34703.1 hPa SE 1.6 mph /  2.6 km/h 3.2 mph /  5.1 km/h 97 % 0.0 in /  0 mm
16:47 3.2 °F /  -16 °C 2.8 °F /  -16.2 °C 1024.9 in /  34703.1 hPa Calm   3.2 mph /  5.1 km/h 97 % 0.0 in /  0 mm
16:52 3.2 °F /  -16 °C 2.8 °F /  -16.2 °C 1024.9 in /  34703.1 hPa SE 1.6 mph /  2.6 km/h 3.2 mph /  5.1 km/h 97 % 0.0 in /  0 mm
16:57 3.2 °F /  -16 °C 2.8 °F /  -16.2 °C 1024.9 in /  34703.1 hPa SE 1.6 mph /  2.6 km/h 3.2 mph /  5.1 km/h 97 % 0.0 in /  0 mm
17:02 3.1 °F /  -16.1 °C 2.7 °F /  -16.3 °C 1024.9 in /  34703.1 hPa SSE 1.6 mph /  2.6 km/h 4.8 mph /  7.7 km/h 97 % 0.0 in /  0 mm
17:12 3.1 °F /  -16.1 °C 2.7 °F /  -16.3 °C 1024.9 in /  34703.1 hPa Calm   4.8 mph /  7.7 km/h 97 % 0.0 in /  0 mm
17:17 3.1 °F /  -16.1 °C 2.7 °F /  -16.3 °C 1024.9 in /  34703.1 hPa Calm   4.8 mph /  7.7 km/h 97 % 0.0 in /  0 mm
17:22 3.1 °F /  -16.1 °C 2.7 °F /  -16.3 °C 1024.9 in /  34703.1 hPa Calm   3.2 mph /  5.1 km/h 97 % 0.0 in /  0 mm
17:27 3.1 °F /  -16.1 °C 2.7 °F /  -16.3 °C 1024.9 in /  34703.1 hPa Calm   3.2 mph /  5.1 km/h 97 % 0.0 in /  0 mm
17:32 3.1 °F /  -16.1 °C 2.7 °F /  -16.3 °C 1024.9 in /  34703.1 hPa Calm   3.2 mph /  5.1 km/h 97 % 0.0 in /  0 mm
17:37 3.1 °F /  -16.1 °C 2.7 °F /  -16.3 °C 1024.9 in /  34703.1 hPa Calm   3.2 mph /  5.1 km/h 97 % 0.0 in /  0 mm
17:42 3.1 °F /  -16.1 °C 2.7 °F /  -16.3 °C 1025.3 in /  34716.7 hPa Calm   3.2 mph /  5.1 km/h 97 % 0.0 in /  0 mm
17:47 3.1 °F /  -16.1 °C 2.7 °F /  -16.3 °C 1025.3 in /  34716.7 hPa Calm   1.6 mph /  2.6 km/h 97 % 0.0 in /  0 mm
17:52 3.1 °F /  -16.1 °C 2.7 °F /  -16.3 °C 1025.3 in /  34716.7 hPa Calm   1.6 mph /  2.6 km/h 97 % 0.0 in /  0 mm
18:02 3.1 °F /  -16.1 °C 2.7 °F /  -16.3 °C 1025.3 in /  34716.7 hPa Calm   1.6 mph /  2.6 km/h 97 % 0.0 in /  0 mm
18:12 3.1 °F /  -16.1 °C 2.7 °F /  -16.3 °C 1025.3 in /  34716.7 hPa Calm     97 % 0.0 in /  0 mm
18:17 3.1 °F /  -16.1 °C 2.7 °F /  -16.3 °C 1025.3 in /  34716.7 hPa Calm     97 % 0.0 in /  0 mm
18:22 3.1 °F /  -16.1 °C 2.7 °F /  -16.3 °C 1025.6 in /  34726.8 hPa Calm     97 % 0.0 in /  0 mm
18:27 3.1 °F /  -16.1 °C 2.7 °F /  -16.3 °C 1025.6 in /  34726.8 hPa Calm   3.2 mph /  5.1 km/h 97 % 0.0 in /  0 mm
18:37 3.1 °F /  -16.1 °C 2.7 °F /  -16.3 °C 1025.6 in /  34726.8 hPa Calm   3.2 mph /  5.1 km/h 97 % 0.0 in /  0 mm
18:42 3.1 °F /  -16.1 °C 2.7 °F /  -16.3 °C 1025.6 in /  34726.8 hPa ENE 1.6 mph /  2.6 km/h 3.2 mph /  5.1 km/h 97 % 0.0 in /  0 mm
18:52 3.0 °F /  -16.1 °C 2.6 °F /  -16.3 °C 1025.6 in /  34726.8 hPa East 3.2 mph /  5.1 km/h 3.2 mph /  5.1 km/h 97 % 0.0 in /  0 mm
18:57 3.0 °F /  -16.1 °C 2.6 °F /  -16.3 °C 1025.6 in /  34726.8 hPa Calm   3.2 mph /  5.1 km/h 97 % 0.0 in /  0 mm
19:02 2.9 °F /  -16.2 °C 2.5 °F /  -16.4 °C 1025.6 in /  34726.8 hPa Calm   4.8 mph /  7.7 km/h 97 % 0.0 in /  0 mm
19:07 2.9 °F /  -16.2 °C 2.5 °F /  -16.4 °C 1025.6 in /  34726.8 hPa Calm   4.8 mph /  7.7 km/h 97 % 0.0 in /  0 mm
19:12 2.9 °F /  -16.2 °C 2.5 °F /  -16.4 °C 1025.6 in /  34726.8 hPa Calm   4.8 mph /  7.7 km/h 97 % 0.0 in /  0 mm
19:17 2.8 °F /  -16.2 °C 2.4 °F /  -16.4 °C 1025.6 in /  34726.8 hPa Calm   1.6 mph /  2.6 km/h 97 % 0.0 in /  0 mm
19:22 2.8 °F /  -16.2 °C 2.4 °F /  -16.4 °C 1026.0 in /  34740.4 hPa Calm   1.6 mph /  2.6 km/h 97 % 0.0 in /  0 mm
19:32 2.8 °F /  -16.2 °C 2.4 °F /  -16.4 °C 1026.0 in /  34740.4 hPa NNE 1.6 mph /  2.6 km/h 3.2 mph /  5.1 km/h 97 % 0.0 in /  0 mm
19:37 2.8 °F /  -16.2 °C 2.4 °F /  -16.4 °C 1026.0 in /  34740.4 hPa Calm   3.2 mph /  5.1 km/h 97 % 0.0 in /  0 mm
19:42 2.8 °F /  -16.2 °C 2.4 °F /  -16.4 °C 1026.0 in /  34740.4 hPa Calm   3.2 mph /  5.1 km/h 97 % 0.0 in /  0 mm
19:52 2.7 °F /  -16.3 °C 2.3 °F /  -16.5 °C 1025.6 in /  34726.8 hPa Calm   3.2 mph /  5.1 km/h 97 % 0.0 in /  0 mm
19:57 2.7 °F /  -16.3 °C 2.3 °F /  -16.5 °C 1026.0 in /  34740.4 hPa Calm   3.2 mph /  5.1 km/h 97 % 0.0 in /  0 mm
20:02 2.7 °F /  -16.3 °C 2.3 °F /  -16.5 °C 1026.0 in /  34740.4 hPa Calm   3.2 mph /  5.1 km/h 97 % 0.0 in /  0 mm
20:12 2.7 °F /  -16.3 °C 2.3 °F /  -16.5 °C 1026.0 in /  34740.4 hPa Calm   1.6 mph /  2.6 km/h 97 % 0.0 in /  0 mm
20:17 2.7 °F /  -16.3 °C 2.3 °F /  -16.5 °C 1026.0 in /  34740.4 hPa Calm   1.6 mph /  2.6 km/h 97 % 0.0 in /  0 mm
20:22 2.6 °F /  -16.3 °C 2.2 °F /  -16.6 °C 1026.0 in /  34740.4 hPa Calm     97 % 0.0 in /  0 mm
20:32 2.6 °F /  -16.3 °C 2.2 °F /  -16.6 °C 1026.0 in /  34740.4 hPa Calm     97 % 0.0 in /  0 mm
20:37 2.6 °F /  -16.3 °C 2.2 °F /  -16.6 °C 1026.0 in /  34740.4 hPa Calm     97 % 0.0 in /  0 mm
20:42 2.6 °F /  -16.3 °C 2.2 °F /  -16.6 °C 1026.0 in /  34740.4 hPa Calm   1.6 mph /  2.6 km/h 97 % 0.0 in /  0 mm
20:52 2.6 °F /  -16.3 °C 2.2 °F /  -16.6 °C 1026.0 in /  34740.4 hPa Calm   1.6 mph /  2.6 km/h 97 % 0.0 in /  0 mm
20:57 2.6 °F /  -16.3 °C 2.2 °F /  -16.6 °C 1026.0 in /  34740.4 hPa East 1.6 mph /  2.6 km/h 1.6 mph /  2.6 km/h 97 % 0.0 in /  0 mm
21:02 2.6 °F /  -16.3 °C 2.2 °F /  -16.6 °C 1026.0 in /  34740.4 hPa Calm   3.2 mph /  5.1 km/h 97 % 0.0 in /  0 mm
21:12 2.6 °F /  -16.3 °C 2.2 °F /  -16.6 °C 1026.0 in /  34740.4 hPa NE 1.6 mph /  2.6 km/h 4.8 mph /  7.7 km/h 97 % 0.0 in /  0 mm
21:17 2.5 °F /  -16.4 °C 2.1 °F /  -16.6 °C 1026.0 in /  34740.4 hPa Calm   4.8 mph /  7.7 km/h 97 % 0.0 in /  0 mm
21:27 2.4 °F /  -16.4 °C 2.0 °F /  -16.7 °C 1026.0 in /  34740.4 hPa Calm   1.6 mph /  2.6 km/h 97 % 0.0 in /  0 mm
21:32 2.4 °F /  -16.4 °C 2.0 °F /  -16.7 °C 1026.0 in /  34740.4 hPa East 1.6 mph /  2.6 km/h 3.2 mph /  5.1 km/h 97 % 0.0 in /  0 mm
21:37 2.4 °F /  -16.4 °C 2.0 °F /  -16.7 °C 1026.0 in /  34740.4 hPa ENE 1.6 mph /  2.6 km/h 4.8 mph /  7.7 km/h 97 % 0.0 in /  0 mm
21:47 2.4 °F /  -16.4 °C 2.0 °F /  -16.7 °C 1026.0 in /  34740.4 hPa Calm   3.2 mph /  5.1 km/h 97 % 0.0 in /  0 mm
21:52 2.3 °F /  -16.5 °C 1.9 °F /  -16.7 °C 1026.3 in /  34750.5 hPa NE 1.6 mph /  2.6 km/h 1.6 mph /  2.6 km/h 97 % 0.0 in /  0 mm
21:57 2.3 °F /  -16.5 °C 1.9 °F /  -16.7 °C 1026.3 in /  34750.5 hPa Calm   1.6 mph /  2.6 km/h 97 % 0.0 in /  0 mm
22:02 2.3 °F /  -16.5 °C 1.9 °F /  -16.7 °C 1026.3 in /  34750.5 hPa Calm   1.6 mph /  2.6 km/h 97 % 0.0 in /  0 mm
22:07 2.3 °F /  -16.5 °C 1.9 °F /  -16.7 °C 1026.3 in /  34750.5 hPa NE 1.6 mph /  2.6 km/h 1.6 mph /  2.6 km/h 97 % 0.0 in /  0 mm
22:12 2.3 °F /  -16.5 °C 1.9 °F /  -16.7 °C 1026.3 in /  34750.5 hPa East 1.6 mph /  2.6 km/h 3.2 mph /  5.1 km/h 97 % 0.0 in /  0 mm
22:17 2.3 °F /  -16.5 °C 1.9 °F /  -16.7 °C 1026.3 in /  34750.5 hPa ENE 1.6 mph /  2.6 km/h 3.2 mph /  5.1 km/h 97 % 0.0 in /  0 mm
22:22 2.2 °F /  -16.6 °C 1.8 °F /  -16.8 °C 1026.3 in /  34750.5 hPa Calm   4.8 mph /  7.7 km/h 97 % 0.0 in /  0 mm
22:27 2.2 °F /  -16.6 °C 1.8 °F /  -16.8 °C 1026.3 in /  34750.5 hPa Calm   4.8 mph /  7.7 km/h 97 % 0.0 in /  0 mm
22:32 2.2 °F /  -16.6 °C 1.8 °F /  -16.8 °C 1026.3 in /  34750.5 hPa Calm   4.8 mph /  7.7 km/h 97 % 0.0 in /  0 mm
22:37 2.2 °F /  -16.6 °C 1.8 °F /  -16.8 °C 1026.3 in /  34750.5 hPa Calm   1.6 mph /  2.6 km/h 97 % 0.0 in /  0 mm
22:42 2.2 °F /  -16.6 °C 1.8 °F /  -16.8 °C 1026.3 in /  34750.5 hPa Calm     97 % 0.0 in /  0 mm
22:47 2.2 °F /  -16.6 °C 1.8 °F /  -16.8 °C 1026.3 in /  34750.5 hPa Calm     97 % 0.0 in /  0 mm
22:52 2.2 °F /  -16.6 °C 1.8 °F /  -16.8 °C 1026.0 in /  34740.4 hPa East 1.6 mph /  2.6 km/h 1.6 mph /  2.6 km/h 97 % 0.0 in /  0 mm
22:57 2.2 °F /  -16.6 °C 1.8 °F /  -16.8 °C 1026.0 in /  34740.4 hPa Calm   3.2 mph /  5.1 km/h 97 % 0.0 in /  0 mm
23:02 2.2 °F /  -16.6 °C 1.8 °F /  -16.8 °C 1026.0 in /  34740.4 hPa Calm   3.2 mph /  5.1 km/h 97 % 0.0 in /  0 mm
23:07 2.2 °F /  -16.6 °C 1.8 °F /  -16.8 °C 1026.3 in /  34750.5 hPa Calm   3.2 mph /  5.1 km/h 97 % 0.0 in /  0 mm
23:12 2.2 °F /  -16.6 °C 1.8 °F /  -16.8 °C 1026.3 in /  34750.5 hPa Calm   3.2 mph /  5.1 km/h 97 % 0.0 in /  0 mm
23:17 2.3 °F /  -16.5 °C 1.9 °F /  -16.7 °C 1026.3 in /  34750.5 hPa Calm   1.6 mph /  2.6 km/h 97 % 0.0 in /  0 mm
23:22 2.3 °F /  -16.5 °C 1.9 °F /  -16.7 °C 1026.3 in /  34750.5 hPa Calm   1.6 mph /  2.6 km/h 97 % 0.0 in /  0 mm
23:32 2.3 °F /  -16.5 °C 1.9 °F /  -16.7 °C 1026.3 in /  34750.5 hPa Calm     97 % 0.0 in /  0 mm
23:37 2.3 °F /  -16.5 °C 1.9 °F /  -16.7 °C 1026.3 in /  34750.5 hPa Calm     97 % 0.0 in /  0 mm
23:42 2.3 °F /  -16.5 °C 1.9 °F /  -16.7 °C 1026.3 in /  34750.5 hPa Calm     97 % 0.0 in /  0 mm
23:47 2.3 °F /  -16.5 °C 1.9 °F /  -16.7 °C 1026.3 in /  34750.5 hPa Calm     97 % 0.0 in /  0 mm
23:57 2.3 °F /  -16.5 °C 1.9 °F /  -16.7 °C 1026.6 in /  34760.7 hPa Calm     97 % 0.0 in /  0 mm
Meteo18
Compliments of Weather Underground - 4 mb

Script developed by  Jim McMurry - jmcmurry@mwt.net Adapted for the template by  Wim van der Kuil - Leuven-Template.eu

You find our weather info also at:

European Weather Network

Weather Underground

Equipment we use:

Weather-station
Davis Vue

Weather-program
Meteobridge

Weather-server
Raspberry PI 2 B+

Provider
1 and 1

Davis Vue

Meteobridge

Raspberry PI 2 B+

1 and 1